Ever Unicorn — 9V7963 — position and weather

sailwx.info

Track history (hours):
 
Tides and Currents Weather Stations Pressure Air Temp Water Temp Dewpoint Dewpoint Depression Visibility Wind Speed Wind Dir Waves Ship Positions

Ever Unicorn

Last reported at 2017-Apr-25 15:06 UTC. Time now 2017-Apr-26 04:08 UTC.
Position N 22°54' E 120°01'.

Length 285 m; draft 9.8 m.

Type: Cargo ship. MMSI: 564995000.

Date/timePositionNaut miles runAvg speedWind from/ knotsBaromVisibWave heightAir tempDewpointWater temp
2017-Apr-25 15:06N 22°54' E 120°01'113.4
2017-Apr-25 15:00N 22°52' E 120°02'713.5
2017-Apr-25 14:30N 22°47' E 120°05'1313.4
2017-Apr-25 13:30N 22°35' E 120°12'611.4
2017-Apr-25 13:00N 22°33' E 120°18'1 2.5
2017-Apr-25 12:30N 22°33' E 120°19'0 0.1
2017-Apr-25 12:00N 22°33' E 120°19'0 0.0
2017-Apr-25 11:30N 22°33' E 120°19'0 0.0
2017-Apr-25 11:00N 22°33' E 120°19'0 0.0
2017-Apr-25 10:30N 22°33' E 120°19'0 0.0
2017-Apr-25 09:57N 22°33' E 120°19'0 0.0
2017-Apr-25 09:27N 22°33' E 120°19'0 0.0
2017-Apr-25 08:51N 22°33' E 120°19'0 0.0
2017-Apr-25 08:30N 22°33' E 120°19'0 0.0
2017-Apr-25 07:57N 22°33' E 120°19'0 0.0
2017-Apr-25 07:27N 22°33' E 120°19'0 0.0
2017-Apr-25 07:00N 22°33' E 120°19'0 0.0
2017-Apr-25 06:27N 22°33' E 120°19'0 0.0
2017-Apr-25 05:57N 22°33' E 120°19'0 0.0
2017-Apr-25 05:30N 22°33' E 120°19'0 0.0
2017-Apr-25 05:00N 22°33' E 120°19'0 0.0
2017-Apr-25 04:27N 22°33' E 120°19'0 0.0
2017-Apr-25 03:54N 22°33' E 120°19'0 0.0
2017-Apr-25 03:30N 22°33' E 120°19'0 0.0
2017-Apr-25 02:51N 22°33' E 120°19'0 0.0
2017-Apr-25 02:30N 22°33' E 120°19'0 0.0
2017-Apr-25 02:00N 22°33' E 120°19'0 0.0
2017-Apr-25 01:30N 22°33' E 120°19'0 0.0
2017-Apr-25 01:00N 22°33' E 120°19'0 0.0
2017-Apr-25 00:30N 22°33' E 120°19'0 0.0
2017-Apr-25 00:00N 22°33' E 120°19'0 0.0
2017-Apr-24 23:30N 22°33' E 120°19'2 3.1
2017-Apr-24 23:00N 22°33' E 120°17'3 6.4
2017-Apr-24 22:30N 22°32' E 120°14'511.1
2017-Apr-24 22:01N 22°31' E 120°08'815.8
2017-Apr-24 21:30N 22°31' E 119°60'815.0
2017-Apr-24 21:00N 22°30' E 119°52'915.1
2017-Apr-24 20:26N 22°30' E 119°42'311 8.2
2017-Apr-23 06:40N 22°19' E 114°06'1 8.5
2017-Apr-23 06:31N 22°19' E 114°07'1 0.1
2017-Apr-23 00:44N 22°19' E 114°07'0 0.0
2017-Apr-22 18:32N 22°19' E 114°07'0 0.4
2017-Apr-22 18:30N 22°19' E 114°07'  
2017-Apr-20 10:20N 35°55' E 120°47'617.7
2017-Apr-20 10:00N 35°57' E 120°40'816.3
2017-Apr-20 09:31N 35°59' E 120°30'612.8
2017-Apr-20 09:00N 36°01' E 120°23'5 9.4
2017-Apr-20 08:30N 36°02' E 120°17'3 0.2
2017-Apr-19 19:40N 36°01' E 120°14'211.2
2017-Apr-19 19:28N 36°02' E 120°16'4 9.1
2017-Apr-19 19:01N 36°01' E 120°21'510.1
2017-Apr-19 18:30N 36°00' E 120°28'5 9.8
2017-Apr-19 18:01N 35°59' E 120°33'612.8
2017-Apr-19 17:31N 35°58' E 120°41'  
2017-Apr-16 13:16N 35°46' E 120°59'0 0.1
2017-Apr-16 12:55N 35°46' E 120°59'0 0.0
2017-Apr-16 12:28N 35°46' E 120°59'0 0.0
2017-Apr-16 09:34N 35°46' E 120°59'0 0.0
2017-Apr-16 09:04N 35°46' E 120°59'0 0.1
2017-Apr-16 08:58N 35°46' E 120°59'0 0.0
2017-Apr-16 08:22N 35°46' E 120°59'0 0.1
2017-Apr-16 07:16N 35°46' E 120°59'0 0.0
2017-Apr-16 03:10N 35°46' E 120°59'0 0.2
2017-Apr-16 02:52N 35°46' E 120°59'0 0.1
2017-Apr-16 02:16N 35°46' E 120°59'0 0.1
2017-Apr-16 00:23N 35°46' E 120°59'0 0.0
2017-Apr-15 23:58N 35°46' E 120°59'0 0.0
2017-Apr-15 23:10N 35°46' E 120°59'0 0.0
2017-Apr-15 22:58N 35°46' E 120°59'0 0.0
2017-Apr-15 22:22N 35°46' E 120°59'0 0.1
2017-Apr-15 19:58N 35°46' E 120°59'0 0.1
2017-Apr-15 19:10N 35°46' E 120°59'0 0.1
2017-Apr-15 17:42N 35°46' E 120°59'0 0.0
2017-Apr-15 17:29N 35°46' E 120°59'4 7.6
2017-Apr-15 16:59N 35°49' E 121°02'612.2
2017-Apr-15 16:30N 35°54' E 121°00'815.1
2017-Apr-15 16:00N 35°56' E 120°51'714.6
2017-Apr-15 15:30N 35°57' E 120°42'  
Track history (hours):
 
Tides and Currents Weather Stations Pressure Air Temp Water Temp Dewpoint Dewpoint Depression Visibility Wind Speed Wind Dir Waves Ship Positions

Ever Unicorn

Last reported at 2017-Apr-25 15:06 UTC. Time now 2017-Apr-26 04:08 UTC.
Position N 22°54' E 120°01'.

Length 285 m; draft 9.8 m.

Type: Cargo ship. MMSI: 564995000.

Date/timePositionNaut miles runAvg speedWind from/ knotsBaromVisibWave heightAir tempDewpointWater temp
2017-Apr-25 15:06N 22°54' E 120°01'113.4
2017-Apr-25 15:00N 22°52' E 120°02'713.5
2017-Apr-25 14:30N 22°47' E 120°05'1313.4
2017-Apr-25 13:30N 22°35' E 120°12'611.4
2017-Apr-25 13:00N 22°33' E 120°18'1 2.5
2017-Apr-25 12:30N 22°33' E 120°19'0 0.1
2017-Apr-25 12:00N 22°33' E 120°19'0 0.0
2017-Apr-25 11:30N 22°33' E 120°19'0 0.0
2017-Apr-25 11:00N 22°33' E 120°19'0 0.0
2017-Apr-25 10:30N 22°33' E 120°19'0 0.0
2017-Apr-25 09:57N 22°33' E 120°19'0 0.0
2017-Apr-25 09:27N 22°33' E 120°19'0 0.0
2017-Apr-25 08:51N 22°33' E 120°19'0 0.0
2017-Apr-25 08:30N 22°33' E 120°19'0 0.0
2017-Apr-25 07:57N 22°33' E 120°19'0 0.0
2017-Apr-25 07:27N 22°33' E 120°19'0 0.0
2017-Apr-25 07:00N 22°33' E 120°19'0 0.0
2017-Apr-25 06:27N 22°33' E 120°19'0 0.0
2017-Apr-25 05:57N 22°33' E 120°19'0 0.0
2017-Apr-25 05:30N 22°33' E 120°19'0 0.0
2017-Apr-25 05:00N 22°33' E 120°19'0 0.0
2017-Apr-25 04:27N 22°33' E 120°19'0 0.0
2017-Apr-25 03:54N 22°33' E 120°19'0 0.0
2017-Apr-25 03:30N 22°33' E 120°19'0 0.0
2017-Apr-25 02:51N 22°33' E 120°19'0 0.0
2017-Apr-25 02:30N 22°33' E 120°19'0 0.0
2017-Apr-25 02:00N 22°33' E 120°19'0 0.0
2017-Apr-25 01:30N 22°33' E 120°19'0 0.0
2017-Apr-25 01:00N 22°33' E 120°19'0 0.0
2017-Apr-25 00:30N 22°33' E 120°19'0 0.0
2017-Apr-25 00:00N 22°33' E 120°19'0 0.0
2017-Apr-24 23:30N 22°33' E 120°19'2 3.1
2017-Apr-24 23:00N 22°33' E 120°17'3 6.4
2017-Apr-24 22:30N 22°32' E 120°14'511.1
2017-Apr-24 22:01N 22°31' E 120°08'815.8
2017-Apr-24 21:30N 22°31' E 119°60'815.0
2017-Apr-24 21:00N 22°30' E 119°52'915.1
2017-Apr-24 20:26N 22°30' E 119°42'311 8.2
2017-Apr-23 06:40N 22°19' E 114°06'1 8.5
2017-Apr-23 06:31N 22°19' E 114°07'1 0.1
2017-Apr-23 00:44N 22°19' E 114°07'0 0.0
2017-Apr-22 18:32N 22°19' E 114°07'0 0.4
2017-Apr-22 18:30N 22°19' E 114°07'  
2017-Apr-20 10:20N 35°55' E 120°47'617.7
2017-Apr-20 10:00N 35°57' E 120°40'816.3
2017-Apr-20 09:31N 35°59' E 120°30'612.8
2017-Apr-20 09:00N 36°01' E 120°23'5 9.4
2017-Apr-20 08:30N 36°02' E 120°17'3 0.2
2017-Apr-19 19:40N 36°01' E 120°14'211.2
2017-Apr-19 19:28N 36°02' E 120°16'4 9.1
2017-Apr-19 19:01N 36°01' E 120°21'510.1
2017-Apr-19 18:30N 36°00' E 120°28'5 9.8
2017-Apr-19 18:01N 35°59' E 120°33'612.8
2017-Apr-19 17:31N 35°58' E 120°41'  
2017-Apr-16 13:16N 35°46' E 120°59'0 0.1
2017-Apr-16 12:55N 35°46' E 120°59'0 0.0
2017-Apr-16 12:28N 35°46' E 120°59'0 0.0
2017-Apr-16 09:34N 35°46' E 120°59'0 0.0
2017-Apr-16 09:04N 35°46' E 120°59'0 0.1
2017-Apr-16 08:58N 35°46' E 120°59'0 0.0
2017-Apr-16 08:22N 35°46' E 120°59'0 0.1
2017-Apr-16 07:16N 35°46' E 120°59'0 0.0
2017-Apr-16 03:10N 35°46' E 120°59'0 0.2
2017-Apr-16 02:52N 35°46' E 120°59'0 0.1
2017-Apr-16 02:16N 35°46' E 120°59'0 0.1
2017-Apr-16 00:23N 35°46' E 120°59'0 0.0
2017-Apr-15 23:58N 35°46' E 120°59'0 0.0
2017-Apr-15 23:10N 35°46' E 120°59'0 0.0
2017-Apr-15 22:58N 35°46' E 120°59'0 0.0
2017-Apr-15 22:22N 35°46' E 120°59'0 0.1
2017-Apr-15 19:58N 35°46' E 120°59'0 0.1
2017-Apr-15 19:10N 35°46' E 120°59'0 0.1
2017-Apr-15 17:42N 35°46' E 120°59'0 0.0
2017-Apr-15 17:29N 35°46' E 120°59'4 7.6
2017-Apr-15 16:59N 35°49' E 121°02'612.2
2017-Apr-15 16:30N 35°54' E 121°00'815.1
2017-Apr-15 16:00N 35°56' E 120°51'714.6
2017-Apr-15 15:30N 35°57' E 120°42'  

Dump ship's entire track history